Time;durP1;ratioP1;P1;durP2;ratioP2;P2;SDS_P1;SDS_P2;PMS_P1;PMS_P2;Temp;Humidity;BMP_temperature;BMP_pressure;BME280_temperature;BME280_humidity;BME280_pressure;Samples;Min_cycle;Max_cycle;Signal;HPM_P1;HPM_P2
2023/03/07 00:01:22;;;;;;;32.10;15.17;;;2.00;99.90;;;;;;5072882;28;20544;-72
2023/03/07 00:03:49;;;;;;;35.90;16.27;;;2.00;99.90;;;;;;5073335;28;20576;-73
2023/03/07 00:06:15;;;;;;;38.70;16.10;;;2.00;99.90;;;;;;5070993;28;20986;-73
2023/03/07 00:08:42;;;;;;;37.77;15.87;;;2.00;99.90;;;;;;5076611;28;20456;-73
2023/03/07 00:11:09;;;;;;;36.30;14.10;;;2.00;99.90;;;;;;5071124;28;20445;-73
2023/03/07 00:13:38;;;;;;;30.40;13.40;;;2.00;99.90;;;;;;5071069;28;20462;-73
2023/03/07 00:16:07;;;;;;;31.03;14.17;;;2.00;99.90;;;;;;5070942;28;20444;-73
2023/03/07 00:18:35;;;;;;;36.27;16.73;;;2.00;99.90;;;;;;5071167;28;20945;-73
2023/03/07 00:21:04;;;;;;;38.37;16.50;;;1.90;99.90;;;;;;5070498;28;20462;-73
2023/03/07 00:23:31;;;;;;;32.90;15.43;;;1.90;99.90;;;;;;5086121;28;20478;-73
2023/03/07 00:25:59;;;;;;;31.90;15.27;;;1.90;99.90;;;;;;5080544;28;20989;-73
2023/03/07 00:28:26;;;;;;;33.77;16.57;;;1.90;99.90;;;;;;5071080;28;20835;-73
2023/03/07 00:30:53;;;;;;;33.27;16.33;;;1.80;99.90;;;;;;5072503;28;20461;-73
2023/03/07 00:33:21;;;;;;;34.90;15.33;;;1.80;99.90;;;;;;5077094;28;20472;-73
2023/03/07 00:35:55;;;;;;;36.67;16.10;;;1.70;99.90;;;;;;5079304;28;20452;-73
2023/03/07 00:38:21;;;;;;;37.50;16.40;;;1.70;99.90;;;;;;5076595;28;20463;-72
2023/03/07 00:40:56;;;;;;;37.13;16.47;;;1.70;99.90;;;;;;5073432;28;20463;-72
2023/03/07 00:43:23;;;;;;;36.77;16.43;;;1.70;99.90;;;;;;5071128;28;20486;-72
2023/03/07 00:45:50;;;;;;;36.80;16.60;;;1.70;99.90;;;;;;5081495;28;20458;-72
2023/03/07 00:48:17;;;;;;;39.00;17.20;;;1.80;99.90;;;;;;5077425;28;20452;-73
2023/03/07 00:50:46;;;;;;;33.80;15.70;;;1.90;99.90;;;;;;5074389;28;20940;-72
2023/03/07 00:53:13;;;;;;;35.80;17.40;;;1.80;99.90;;;;;;5075094;28;20528;-72
2023/03/07 00:55:39;;;;;;;40.27;17.60;;;1.80;99.90;;;;;;5074743;28;20505;-73
2023/03/07 00:58:06;;;;;;;36.53;16.37;;;1.80;99.90;;;;;;5074662;28;21016;-73
2023/03/07 01:00:33;;;;;;;32.37;15.83;;;1.80;99.90;;;;;;5074133;28;20813;-73
2023/03/07 01:03:00;;;;;;;32.87;15.53;;;1.80;99.90;;;;;;5080649;28;20449;-73
2023/03/07 01:05:27;;;;;;;32.60;15.40;;;1.90;99.90;;;;;;5085788;28;20578;-72
2023/03/07 01:07:55;;;;;;;35.87;16.00;;;1.90;99.90;;;;;;5077316;28;20871;-72
2023/03/07 01:10:22;;;;;;;34.33;15.30;;;1.90;99.90;;;;;;5080495;28;20456;-73
2023/03/07 01:12:49;;;;;;;34.27;15.80;;;2.00;99.90;;;;;;5082218;28;20522;-73
2023/03/07 01:15:15;;;;;;;32.07;15.20;;;2.00;99.90;;;;;;5077552;28;20448;-72
2023/03/07 01:17:42;;;;;;;40.90;15.47;;;2.00;99.90;;;;;;5074427;28;20456;-72
2023/03/07 01:20:10;;;;;;;35.87;14.93;;;2.00;99.90;;;;;;5073779;28;20454;-73
2023/03/07 01:22:37;;;;;;;34.40;15.23;;;2.10;99.90;;;;;;5073919;28;20844;-73
2023/03/07 01:25:06;;;;;;;30.37;15.80;;;2.10;99.90;;;;;;5084049;28;20534;-73
2023/03/07 01:27:32;;;;;;;35.90;18.67;;;2.10;99.90;;;;;;5074380;28;20462;-73
2023/03/07 01:29:59;;;;;;;33.27;16.63;;;2.20;99.90;;;;;;5075346;28;20456;-73
2023/03/07 01:32:26;;;;;;;32.03;15.17;;;2.20;99.90;;;;;;5079745;28;20528;-73
2023/03/07 01:34:52;;;;;;;28.57;13.17;;;2.30;99.90;;;;;;5073377;28;20461;-72
2023/03/07 01:37:19;;;;;;;36.60;16.23;;;2.20;99.90;;;;;;5073563;28;20454;-73
2023/03/07 01:39:45;;;;;;;33.27;14.47;;;2.20;99.90;;;;;;5073499;28;20965;-73
2023/03/07 01:42:13;;;;;;;31.60;14.70;;;2.20;99.90;;;;;;5073702;28;20460;-73
2023/03/07 01:44:59;;;;;;;38.70;14.03;;;2.20;99.90;;;;;;5080375;28;21144;-73
2023/03/07 01:47:26;;;;;;;39.57;16.50;;;2.10;99.90;;;;;;5073539;28;20448;-73
2023/03/07 01:49:53;;;;;;;34.07;14.93;;;2.10;99.90;;;;;;5073135;28;20452;-72
2023/03/07 01:52:24;;;;;;;32.90;14.37;;;2.10;99.90;;;;;;5073430;28;20518;-73
2023/03/07 01:54:55;;;;;;;33.00;16.17;;;2.10;99.90;;;;;;5073135;28;20999;-73
2023/03/07 01:57:28;;;;;;;35.43;14.70;;;2.10;99.90;;;;;;5078395;28;20454;-73
2023/03/07 01:59:57;;;;;;;36.23;16.37;;;2.10;99.90;;;;;;5073151;28;20451;-73
2023/03/07 02:02:24;;;;;;;39.53;17.03;;;2.20;99.90;;;;;;5078541;28;20995;-73
2023/03/07 02:04:54;;;;;;;34.03;15.30;;;2.20;99.90;;;;;;5072923;28;20500;-74
2023/03/07 02:07:24;;;;;;;34.47;16.20;;;2.10;99.90;;;;;;5073226;28;20448;-73
2023/03/07 02:09:53;;;;;;;30.60;15.13;;;2.10;99.90;;;;;;5079705;28;20458;-73
2023/03/07 02:12:20;;;;;;;32.40;15.43;;;2.00;99.90;;;;;;5072951;28;20449;-73
2023/03/07 02:14:49;;;;;;;38.63;16.60;;;2.00;99.90;;;;;;5072477;28;20530;-73
2023/03/07 02:17:16;;;;;;;35.73;17.07;;;2.00;99.90;;;;;;5080898;28;20482;-73
2023/03/07 02:19:54;;;;;;;28.17;13.87;;;2.10;99.90;;;;;;5072645;28;20942;-73
2023/03/07 02:22:21;;;;;;;36.00;15.93;;;2.00;99.90;;;;;;5074909;28;20454;-72
2023/03/07 02:24:52;;;;;;;35.30;16.57;;;2.00;99.90;;;;;;5084007;28;20489;-73
2023/03/07 02:27:21;;;;;;;28.00;13.10;;;2.00;99.90;;;;;;5072718;28;20514;-73
2023/03/07 02:29:48;;;;;;;36.03;15.33;;;2.00;99.90;;;;;;5072435;28;20449;-73
2023/03/07 02:32:15;;;;;;;29.87;13.90;;;2.00;99.90;;;;;;5072514;28;20862;-73
2023/03/07 02:34:42;;;;;;;35.83;15.50;;;2.00;99.90;;;;;;5072647;28;20465;-72
2023/03/07 02:37:13;;;;;;;32.90;15.00;;;2.00;99.90;;;;;;5079852;28;20461;-72
2023/03/07 02:39:42;;;;;;;34.47;14.53;;;2.10;99.90;;;;;;5072070;28;21209;-72
2023/03/07 02:42:13;;;;;;;32.83;15.57;;;2.00;99.90;;;;;;5072238;28;20434;-72
2023/03/07 02:44:44;;;;;;;37.17;15.50;;;2.00;99.90;;;;;;5079205;28;20487;-72
2023/03/07 02:47:11;;;;;;;25.93;13.40;;;2.00;99.90;;;;;;5073242;28;20458;-72
2023/03/07 02:49:37;;;;;;;35.60;15.63;;;2.10;99.90;;;;;;5072134;28;20861;-72
2023/03/07 02:52:05;;;;;;;35.90;15.50;;;2.10;99.90;;;;;;5073708;28;20464;-73
2023/03/07 02:54:31;;;;;;;21.27;9.80;;;2.10;99.90;;;;;;5072378;28;20464;-73
2023/03/07 02:56:58;;;;;;;39.67;15.23;;;2.10;99.90;;;;;;5071874;28;20996;-72
2023/03/07 02:59:25;;;;;;;29.20;14.10;;;2.10;99.90;;;;;;5072205;28;20510;-73
2023/03/07 03:01:53;;;;;;;26.43;13.43;;;2.10;99.90;;;;;;5078367;28;20936;-73
2023/03/07 03:04:19;;;;;;;29.77;14.77;;;2.10;99.90;;;;;;5076373;28;20468;-72
2023/03/07 03:06:46;;;;;;;32.60;14.00;;;2.10;99.90;;;;;;5080038;28;20870;-73
2023/03/07 03:09:12;;;;;;;28.97;13.23;;;2.10;99.90;;;;;;5072705;28;20455;-72
2023/03/07 03:11:39;;;;;;;26.50;13.77;;;2.10;99.90;;;;;;5072057;28;20448;-73
2023/03/07 03:14:06;;;;;;;31.70;14.60;;;2.30;99.90;;;;;;5071962;28;20872;-72
2023/03/07 03:16:32;;;;;;;30.50;14.80;;;2.10;99.90;;;;;;5071702;28;20458;-73
2023/03/07 03:19:00;;;;;;;33.23;14.23;;;2.10;99.90;;;;;;5071532;28;20450;-72
2023/03/07 03:21:27;;;;;;;24.60;13.03;;;2.20;99.90;;;;;;5071849;28;20450;-73
2023/03/07 03:23:53;;;;;;;33.23;14.67;;;2.20;99.90;;;;;;5084668;28;20472;-73
2023/03/07 03:26:20;;;;;;;25.17;13.03;;;2.20;99.90;;;;;;5071251;28;20542;-73
2023/03/07 03:28:47;;;;;;;30.70;13.13;;;2.20;99.90;;;;;;5071751;28;20466;-73
2023/03/07 03:31:14;;;;;;;23.90;12.73;;;2.20;99.90;;;;;;5072854;28;20450;-73
2023/03/07 03:33:42;;;;;;;28.10;13.87;;;2.20;99.90;;;;;;5071522;28;20975;-73
2023/03/07 03:36:14;;;;;;;28.37;13.70;;;2.20;99.90;;;;;;5071463;28;20461;-73
2023/03/07 03:38:41;;;;;;;27.80;13.43;;;2.20;99.90;;;;;;5071386;28;20936;-73
2023/03/07 03:41:12;;;;;;;29.07;13.83;;;2.30;99.90;;;;;;5071079;28;20458;-73
2023/03/07 03:43:39;;;;;;;21.63;11.90;;;2.20;99.90;;;;;;5072298;28;20477;-73
2023/03/07 03:46:05;;;;;;;25.57;12.30;;;2.20;99.90;;;;;;5081359;28;20487;-73
2023/03/07 03:48:32;;;;;;;24.30;12.13;;;2.20;99.90;;;;;;5071750;28;20457;-74
2023/03/07 03:51:03;;;;;;;23.73;12.63;;;2.20;99.90;;;;;;5071594;28;20911;-73
2023/03/07 03:53:32;;;;;;;31.43;13.80;;;2.20;99.90;;;;;;5071739;28;20506;-73
2023/03/07 03:56:04;;;;;;;25.80;13.43;;;2.20;99.90;;;;;;5071816;28;20987;-73
2023/03/07 03:58:31;;;;;;;27.80;13.13;;;2.30;99.90;;;;;;5076940;28;20887;-73
2023/03/07 04:01:00;;;;;;;26.87;11.77;;;2.30;99.90;;;;;;5081627;28;20950;-73
2023/03/07 04:03:27;;;;;;;23.33;12.53;;;2.30;99.90;;;;;;5077832;28;20475;-73
2023/03/07 04:05:53;;;;;;;23.00;12.30;;;2.30;99.90;;;;;;5070873;28;20904;-73
2023/03/07 04:08:21;;;;;;;29.20;13.63;;;2.30;99.90;;;;;;5071218;28;20461;-73
2023/03/07 04:10:48;;;;;;;25.40;13.97;;;2.30;99.90;;;;;;5071424;28;20498;-73
2023/03/07 04:13:15;;;;;;;25.07;12.30;;;2.30;99.90;;;;;;5072664;28;20530;-73
2023/03/07 04:15:42;;;;;;;24.03;13.20;;;2.30;99.90;;;;;;5071252;28;21003;-73
2023/03/07 04:18:09;;;;;;;28.03;14.13;;;2.30;99.90;;;;;;5071006;28;20830;-73
2023/03/07 04:20:36;;;;;;;25.47;13.60;;;2.30;99.90;;;;;;5074290;28;20458;-73
2023/03/07 04:23:02;;;;;;;25.93;13.67;;;2.40;99.90;;;;;;5076703;28;20948;-73
2023/03/07 04:25:29;;;;;;;22.67;12.03;;;2.40;99.90;;;;;;5074785;28;20560;-73
2023/03/07 04:27:57;;;;;;;22.47;11.60;;;2.40;99.90;;;;;;5074920;28;20932;-73
2023/03/07 04:30:25;;;;;;;24.23;13.37;;;2.40;99.90;;;;;;5074806;28;20457;-73
2023/03/07 04:32:51;;;;;;;26.60;13.07;;;2.40;99.90;;;;;;5075014;28;20481;-73
2023/03/07 04:35:18;;;;;;;29.30;14.63;;;2.40;99.90;;;;;;5075606;28;20843;-73
2023/03/07 04:37:45;;;;;;;25.87;12.87;;;2.40;99.90;;;;;;5084551;28;20521;-73
2023/03/07 04:40:12;;;;;;;29.03;13.83;;;2.40;99.90;;;;;;5075215;28;20501;-73
2023/03/07 04:42:39;;;;;;;28.47;14.17;;;2.40;99.90;;;;;;5074922;28;20504;-73
2023/03/07 04:45:08;;;;;;;26.13;13.90;;;2.40;99.90;;;;;;5084891;28;20542;-73
2023/03/07 04:47:35;;;;;;;23.17;11.83;;;2.40;99.90;;;;;;5075133;28;20449;-73
2023/03/07 04:50:02;;;;;;;28.90;14.57;;;2.40;99.90;;;;;;5073923;28;20565;-73
2023/03/07 04:52:28;;;;;;;28.67;14.63;;;2.40;99.90;;;;;;5078339;28;20457;-73
2023/03/07 04:54:55;;;;;;;28.00;13.70;;;2.40;99.90;;;;;;5077603;28;20469;-73
2023/03/07 04:57:22;;;;;;;30.00;15.50;;;2.40;99.90;;;;;;5074506;28;20459;-73
2023/03/07 04:59:48;;;;;;;27.93;14.67;;;2.40;99.90;;;;;;5074455;28;20458;-73
2023/03/07 05:02:16;;;;;;;28.87;15.00;;;2.40;99.90;;;;;;5078136;28;20460;-73
2023/03/07 05:04:43;;;;;;;32.00;16.03;;;2.50;99.90;;;;;;5074362;28;20472;-73
2023/03/07 05:07:09;;;;;;;28.03;13.80;;;2.50;99.90;;;;;;5075749;28;20488;-73
2023/03/07 05:09:36;;;;;;;28.57;14.90;;;2.40;99.90;;;;;;5085566;28;20493;-73
2023/03/07 05:12:03;;;;;;;26.67;15.17;;;2.40;99.90;;;;;;5076456;28;20507;-74
2023/03/07 05:14:30;;;;;;;29.87;15.03;;;2.40;99.90;;;;;;5074193;28;20834;-73
2023/03/07 05:16:57;;;;;;;26.67;14.87;;;2.40;99.90;;;;;;5081724;28;20500;-73
2023/03/07 05:19:25;;;;;;;30.10;15.17;;;2.40;99.90;;;;;;5074029;28;20451;-73
2023/03/07 05:21:53;;;;;;;32.90;16.70;;;2.40;99.90;;;;;;5074078;28;20449;-73
2023/03/07 05:24:19;;;;;;;27.97;14.80;;;2.40;99.90;;;;;;5094003;28;20478;-73
2023/03/07 05:26:46;;;;;;;30.77;15.87;;;2.40;99.90;;;;;;5073624;28;20487;-73
2023/03/07 05:29:12;;;;;;;29.30;14.57;;;2.40;99.90;;;;;;5081721;28;20454;-73
2023/03/07 05:31:39;;;;;;;33.20;15.87;;;2.40;99.90;;;;;;5074951;28;20453;-73
2023/03/07 05:34:07;;;;;;;29.73;15.70;;;2.30;99.90;;;;;;5075661;28;20550;-73
2023/03/07 05:36:35;;;;;;;34.70;14.97;;;2.40;99.90;;;;;;5073987;28;20455;-73
2023/03/07 05:39:01;;;;;;;29.27;15.00;;;2.40;99.90;;;;;;5081075;28;20457;-73
2023/03/07 05:41:28;;;;;;;30.50;15.80;;;2.40;99.90;;;;;;5073466;28;20458;-73
2023/03/07 05:43:55;;;;;;;28.90;15.20;;;2.40;99.90;;;;;;5074174;28;21005;-73
2023/03/07 05:46:21;;;;;;;27.33;14.60;;;2.40;99.90;;;;;;5083681;28;20547;-73
2023/03/07 05:48:48;;;;;;;30.07;14.80;;;2.40;99.90;;;;;;5073565;28;20931;-73
2023/03/07 05:51:15;;;;;;;28.33;16.10;;;2.40;99.90;;;;;;5074354;28;20451;-73
2023/03/07 05:53:43;;;;;;;29.40;15.00;;;2.40;99.90;;;;;;5073592;28;20469;-73
2023/03/07 05:56:09;;;;;;;33.80;15.80;;;2.50;99.90;;;;;;5089468;28;20549;-73
2023/03/07 05:58:36;;;;;;;30.87;15.13;;;2.50;99.90;;;;;;5076445;28;20463;-74
2023/03/07 06:01:03;;;;;;;30.37;15.60;;;2.50;99.90;;;;;;5073225;28;20943;-74
2023/03/07 06:03:29;;;;;;;30.23;15.60;;;2.50;99.90;;;;;;5089380;28;20509;-74
2023/03/07 06:05:56;;;;;;;37.37;17.00;;;2.60;99.90;;;;;;5073162;28;20484;-74
2023/03/07 06:08:23;;;;;;;28.37;14.80;;;2.60;99.90;;;;;;5073227;28;20508;-74
2023/03/07 06:10:53;;;;;;;28.70;15.37;;;2.60;99.90;;;;;;5073541;28;20934;-74
2023/03/07 06:13:21;;;;;;;36.00;16.80;;;2.60;99.90;;;;;;5073728;28;20470;-74
2023/03/07 06:15:49;;;;;;;31.80;15.90;;;2.70;99.90;;;;;;5073108;28;20509;-74
2023/03/07 06:18:16;;;;;;;35.20;15.60;;;2.70;99.90;;;;;;5073118;28;21028;-74
2023/03/07 06:20:43;;;;;;;34.87;15.10;;;2.70;99.90;;;;;;5073311;28;20450;-76
2023/03/07 06:23:09;;;;;;;32.33;15.53;;;2.70;99.90;;;;;;5075012;28;21020;-76
2023/03/07 06:25:37;;;;;;;30.30;15.87;;;2.80;99.90;;;;;;5079176;28;20908;-76
2023/03/07 06:28:05;;;;;;;30.97;14.80;;;2.80;99.90;;;;;;5088743;28;20499;-76
2023/03/07 06:30:31;;;;;;;27.13;15.07;;;2.80;99.90;;;;;;5088837;28;20472;-76
2023/03/07 06:32:58;;;;;;;27.80;15.30;;;2.90;99.90;;;;;;5079417;28;20852;-76
2023/03/07 06:35:25;;;;;;;29.73;14.50;;;2.80;99.90;;;;;;5079575;28;20529;-76
2023/03/07 06:37:52;;;;;;;28.40;14.93;;;2.90;99.90;;;;;;5072849;28;20475;-76
2023/03/07 06:40:18;;;;;;;29.70;15.03;;;2.90;99.90;;;;;;5080029;28;20943;-76
2023/03/07 06:42:45;;;;;;;28.40;14.80;;;2.90;99.90;;;;;;5075652;28;20456;-76
2023/03/07 06:45:13;;;;;;;24.83;14.57;;;2.90;99.90;;;;;;5088105;28;20457;-76
2023/03/07 06:47:40;;;;;;;29.40;14.40;;;3.00;99.90;;;;;;5090723;28;20483;-76
2023/03/07 06:50:08;;;;;;;30.00;14.73;;;2.90;99.90;;;;;;5075161;28;20460;-76
2023/03/07 06:52:34;;;;;;;28.00;14.00;;;3.00;99.90;;;;;;5074354;28;21003;-76
2023/03/07 06:55:01;;;;;;;28.87;14.10;;;3.00;99.90;;;;;;5080699;28;20478;-75
2023/03/07 06:57:28;;;;;;;25.20;13.67;;;3.00;99.90;;;;;;5075286;28;20455;-77
2023/03/07 06:59:54;;;;;;;27.47;13.27;;;3.00;99.90;;;;;;5078758;28;20512;-76
2023/03/07 07:02:22;;;;;;;28.53;13.63;;;3.10;99.90;;;;;;5088787;28;20453;-77
2023/03/07 07:04:49;;;;;;;28.77;13.57;;;3.10;99.90;;;;;;5072836;28;20523;-76
2023/03/07 07:07:16;;;;;;;25.90;14.13;;;3.10;99.90;;;;;;5080736;28;20487;-77
2023/03/07 07:09:42;;;;;;;28.47;14.47;;;3.10;99.90;;;;;;5078717;28;20454;-76
2023/03/07 07:12:09;;;;;;;29.40;15.20;;;3.10;99.90;;;;;;5075091;28;20476;-76
2023/03/07 07:14:35;;;;;;;27.43;13.93;;;3.10;99.90;;;;;;5084403;28;20479;-76
2023/03/07 07:17:02;;;;;;;25.03;12.30;;;3.20;99.90;;;;;;5083324;28;20507;-76
2023/03/07 07:19:30;;;;;;;24.60;14.20;;;3.20;99.90;;;;;;5079160;28;20464;-77
2023/03/07 07:21:57;;;;;;;21.20;13.13;;;3.30;99.90;;;;;;5079512;28;20459;-76
2023/03/07 07:24:24;;;;;;;24.80;13.60;;;3.30;99.90;;;;;;5079612;28;20485;-76
2023/03/07 07:26:50;;;;;;;26.23;14.10;;;3.30;99.90;;;;;;5078618;28;20490;-76
2023/03/07 07:29:17;;;;;;;29.60;13.77;;;3.40;99.90;;;;;;5079895;28;20454;-76
2023/03/07 07:31:44;;;;;;;28.17;13.90;;;3.30;99.90;;;;;;5079864;28;20806;-76
2023/03/07 07:34:10;;;;;;;25.80;14.17;;;3.40;99.90;;;;;;5079485;28;20478;-76
2023/03/07 07:36:38;;;;;;;28.50;14.50;;;3.40;99.90;;;;;;5079222;28;20448;-76
2023/03/07 07:39:06;;;;;;;26.30;14.53;;;3.40;99.90;;;;;;5079713;28;20540;-76
2023/03/07 07:41:33;;;;;;;27.00;14.43;;;3.50;99.90;;;;;;5078867;28;20508;-76
2023/03/07 07:44:00;;;;;;;29.27;14.07;;;3.50;99.90;;;;;;5078741;28;20538;-76
2023/03/07 07:46:27;;;;;;;23.70;12.67;;;3.50;99.90;;;;;;5078809;28;20551;-76
2023/03/07 07:48:54;;;;;;;24.97;13.90;;;3.50;99.90;;;;;;5079942;28;20453;-76
2023/03/07 07:51:21;;;;;;;24.87;13.03;;;3.50;99.90;;;;;;5078897;28;20459;-76
2023/03/07 07:53:49;;;;;;;24.80;13.07;;;3.50;99.90;;;;;;5078150;28;21660;-76
2023/03/07 07:56:16;;;;;;;24.40;13.70;;;3.50;99.90;;;;;;5078292;28;20458;-76
2023/03/07 07:58:43;;;;;;;19.40;10.33;;;3.60;99.90;;;;;;5077779;28;20455;-76
2023/03/07 08:01:15;;;;;;;29.67;14.13;;;3.60;99.90;;;;;;5077032;28;20523;-76
2023/03/07 08:03:41;;;;;;;23.20;11.00;;;3.70;99.90;;;;;;5078323;28;20559;-76
2023/03/07 08:06:08;;;;;;;21.17;12.00;;;3.80;99.90;;;;;;5078264;28;20475;-76
2023/03/07 08:08:35;;;;;;;29.00;12.90;;;3.80;99.90;;;;;;5077766;28;20451;-76
2023/03/07 08:11:04;;;;;;;23.87;13.17;;;3.80;99.90;;;;;;5078685;28;20481;-76
2023/03/07 08:13:31;;;;;;;24.70;11.40;;;3.90;99.90;;;;;;5078062;28;20517;-76
2023/03/07 08:15:57;;;;;;;21.30;11.80;;;3.90;99.90;;;;;;5078050;28;20508;-76
2023/03/07 08:18:24;;;;;;;22.50;11.90;;;3.90;99.90;;;;;;5078476;28;20454;-76
2023/03/07 08:20:51;;;;;;;24.20;12.50;;;3.90;99.90;;;;;;5078050;28;20523;-75
2023/03/07 08:23:17;;;;;;;20.20;11.73;;;3.90;99.90;;;;;;5078610;28;20464;-76
2023/03/07 08:25:44;;;;;;;24.40;13.83;;;3.90;99.90;;;;;;5077690;28;20451;-75
2023/03/07 08:28:12;;;;;;;22.43;11.67;;;4.00;99.90;;;;;;5077641;28;20488;-75
2023/03/07 08:30:38;;;;;;;27.47;12.10;;;4.00;99.90;;;;;;5077718;28;20459;-75
2023/03/07 08:33:06;;;;;;;22.97;12.60;;;4.10;99.90;;;;;;5077663;28;20458;-76
2023/03/07 08:35:32;;;;;;;21.93;10.57;;;4.10;99.90;;;;;;5077041;28;20463;-76
2023/03/07 08:37:59;;;;;;;22.17;12.27;;;4.20;99.90;;;;;;5076210;28;21333;-75
2023/03/07 08:40:27;;;;;;;22.10;11.80;;;4.20;99.90;;;;;;5077435;28;20451;-75
2023/03/07 08:42:54;;;;;;;23.30;12.57;;;4.30;99.90;;;;;;5077950;28;21778;-75
2023/03/07 08:45:23;;;;;;;20.50;11.20;;;4.40;99.90;;;;;;5077705;28;21056;-75
2023/03/07 08:47:52;;;;;;;23.33;11.97;;;4.50;99.90;;;;;;5078201;28;20488;-75
2023/03/07 08:50:20;;;;;;;25.33;12.80;;;4.80;99.90;;;;;;5078045;28;20555;-76
2023/03/07 08:52:47;;;;;;;22.07;10.17;;;4.90;99.90;;;;;;5078152;28;20470;-75
2023/03/07 08:55:15;;;;;;;19.23;9.60;;;5.00;99.90;;;;;;5077989;28;20439;-75
2023/03/07 08:57:44;;;;;;;18.30;10.57;;;5.00;99.90;;;;;;5077943;28;20454;-75
2023/03/07 09:00:12;;;;;;;20.00;11.40;;;5.20;99.90;;;;;;5076804;28;20457;-76
2023/03/07 09:02:40;;;;;;;24.23;11.87;;;5.30;99.90;;;;;;5078147;28;20478;-76
2023/03/07 09:05:07;;;;;;;19.90;11.50;;;5.50;99.90;;;;;;5078868;28;20465;-75
2023/03/07 09:07:33;;;;;;;18.57;9.97;;;5.70;99.90;;;;;;5082119;28;20491;-76
2023/03/07 09:10:00;;;;;;;19.07;10.07;;;5.70;99.90;;;;;;5080865;28;20502;-76
2023/03/07 09:12:27;;;;;;;18.93;11.07;;;5.80;99.90;;;;;;5081118;28;20472;-75
2023/03/07 09:14:54;;;;;;;16.40;9.90;;;5.80;99.90;;;;;;5081068;28;20479;-76
2023/03/07 09:17:21;;;;;;;20.20;11.43;;;5.70;99.90;;;;;;5081211;28;20537;-75
2023/03/07 09:19:49;;;;;;;22.63;10.27;;;5.70;99.90;;;;;;5081417;28;20505;-75
2023/03/07 09:22:16;;;;;;;20.90;11.40;;;5.70;99.90;;;;;;5081335;28;20456;-75
2023/03/07 09:24:43;;;;;;;24.70;11.80;;;5.70;99.90;;;;;;5081775;28;20472;-75
2023/03/07 09:27:10;;;;;;;22.73;11.40;;;5.60;99.90;;;;;;5082418;28;20502;-76
2023/03/07 09:29:37;;;;;;;21.77;11.37;;;5.70;99.90;;;;;;5081333;28;20456;-75
2023/03/07 09:32:04;;;;;;;17.43;10.27;;;5.70;99.90;;;;;;5080942;28;20463;-75
2023/03/07 09:34:30;;;;;;;20.60;10.00;;;5.80;99.90;;;;;;5081408;28;20460;-75
2023/03/07 09:36:58;;;;;;;19.93;11.80;;;5.80;99.90;;;;;;5081262;28;20448;-75
2023/03/07 09:39:25;;;;;;;23.57;11.13;;;5.80;99.90;;;;;;5080769;28;20490;-74
2023/03/07 09:41:57;;;;;;;19.40;11.10;;;5.80;99.90;;;;;;5080952;28;20453;-74
2023/03/07 09:44:49;;;;;;;21.30;12.30;;;5.80;99.90;;;;;;5080766;28;20961;-74
2023/03/07 09:47:50;;;;;;;27.30;12.37;;;5.80;99.90;;;;;;5080164;28;20482;-75
2023/03/07 09:50:25;;;;;;;18.63;10.80;;;5.80;99.90;;;;;;5079212;28;20451;-75
2023/03/07 09:52:58;;;;;;;18.43;9.90;;;5.70;99.90;;;;;;5080923;28;20448;-75
2023/03/07 09:55:26;;;;;;;23.40;12.83;;;5.90;99.90;;;;;;5080056;28;20497;-76
2023/03/07 09:57:56;;;;;;;19.77;11.63;;;6.00;99.90;;;;;;5080518;28;21997;-75
2023/03/07 10:00:27;;;;;;;16.20;9.87;;;6.10;99.90;;;;;;5080110;28;20489;-75
2023/03/07 10:02:58;;;;;;;15.60;9.33;;;6.20;99.90;;;;;;5080778;28;20467;-76
2023/03/07 10:05:31;;;;;;;14.77;8.50;;;6.30;99.90;;;;;;5080307;28;20506;-75
2023/03/07 10:08:01;;;;;;;14.60;8.33;;;6.30;99.90;;;;;;5081238;28;21052;-76
2023/03/07 10:10:36;;;;;;;11.63;7.23;;;6.20;99.90;;;;;;5079894;28;20479;-76
2023/03/07 10:13:22;;;;;;;10.63;6.90;;;6.10;99.90;;;;;;5079963;28;21083;-76
2023/03/07 10:15:53;;;;;;;16.40;8.40;;;6.10;99.90;;;;;;5080860;28;20862;-76
2023/03/07 10:18:28;;;;;;;15.10;9.07;;;6.00;99.90;;;;;;5078481;28;20987;-76
2023/03/07 10:21:02;;;;;;;12.07;8.00;;;6.10;99.90;;;;;;5080051;28;20456;-75
2023/03/07 10:23:46;;;;;;;13.90;7.60;;;6.00;99.90;;;;;;5079177;28;20469;-75
2023/03/07 10:26:19;;;;;;;13.00;8.40;;;5.90;99.90;;;;;;5080019;28;20439;-76
2023/03/07 10:28:47;;;;;;;12.50;8.30;;;5.90;99.90;;;;;;5080394;28;20549;-75
2023/03/07 10:31:17;;;;;;;12.57;8.37;;;5.80;99.90;;;;;;5079070;28;20448;-75
2023/03/07 10:33:47;;;;;;;11.97;8.47;;;5.90;99.90;;;;;;5079056;28;20505;-75
2023/03/07 10:36:19;;;;;;;14.70;8.30;;;5.80;99.90;;;;;;5078603;28;20533;-75
2023/03/07 10:38:57;;;;;;;15.77;8.80;;;5.80;99.90;;;;;;5079221;28;20455;-75
2023/03/07 10:41:24;;;;;;;13.47;8.57;;;5.60;99.90;;;;;;5080314;28;20440;-75
2023/03/07 10:43:53;;;;;;;17.63;9.83;;;5.50;99.90;;;;;;5079372;28;20472;-75
2023/03/07 10:46:21;;;;;;;15.07;8.83;;;5.50;99.90;;;;;;5079799;28;20450;-76
2023/03/07 10:48:52;;;;;;;15.57;9.37;;;5.50;99.90;;;;;;5079864;28;21077;-76
2023/03/07 10:51:43;;;;;;;17.20;9.30;;;5.40;99.90;;;;;;5081300;28;20528;-76
2023/03/07 10:54:16;;;;;;;16.13;9.50;;;5.40;99.90;;;;;;5079988;28;20986;-76
2023/03/07 10:57:03;;;;;;;14.87;9.53;;;5.30;99.90;;;;;;5080803;28;20506;-75
2023/03/07 10:59:30;;;;;;;19.90;10.30;;;5.30;99.90;;;;;;5080321;28;20452;-75
2023/03/07 11:01:58;;;;;;;18.23;9.87;;;5.30;99.90;;;;;;5079107;28;20458;-76
2023/03/07 11:04:27;;;;;;;16.40;9.60;;;5.30;99.90;;;;;;5079698;28;20464;-76
2023/03/07 11:06:56;;;;;;;15.87;9.37;;;5.50;99.90;;;;;;5079063;28;20440;-75
2023/03/07 11:09:27;;;;;;;13.00;7.27;;;5.70;99.90;;;;;;5080065;28;20816;-75
2023/03/07 11:11:57;;;;;;;14.50;8.80;;;5.80;99.90;;;;;;5079033;28;20471;-75
2023/03/07 11:14:25;;;;;;;14.43;8.83;;;5.80;99.90;;;;;;5080367;28;20463;-75
2023/03/07 11:16:54;;;;;;;14.27;9.33;;;5.80;99.90;;;;;;5080088;28;20489;-76
2023/03/07 11:19:31;;;;;;;15.97;8.03;;;6.00;99.90;;;;;;5078788;28;20447;-75
2023/03/07 11:21:59;;;;;;;17.00;8.60;;;6.10;99.90;;;;;;5079600;28;20990;-76
2023/03/07 11:24:29;;;;;;;13.23;7.93;;;6.20;99.90;;;;;;5080180;28;20528;-74
2023/03/07 11:26:57;;;;;;;14.70;8.50;;;6.30;99.90;;;;;;5078746;28;20802;-75
2023/03/07 11:29:24;;;;;;;12.80;8.13;;;6.50;99.90;;;;;;5078925;28;20454;-75
2023/03/07 11:32:02;;;;;;;13.80;7.70;;;6.60;99.90;;;;;;5078406;28;20542;-75
2023/03/07 11:34:36;;;;;;;12.93;7.00;;;6.90;99.90;;;;;;5079430;28;20474;-76
2023/03/07 11:37:16;;;;;;;10.57;6.90;;;7.10;99.90;;;;;;5079009;28;20815;-75
2023/03/07 11:39:53;;;;;;;12.87;8.10;;;7.30;99.90;;;;;;5078732;28;20465;-76
2023/03/07 11:42:25;;;;;;;8.43;6.20;;;7.60;99.90;;;;;;5078054;28;20503;-75
2023/03/07 11:44:53;;;;;;;15.60;8.90;;;7.70;99.90;;;;;;5079503;28;20482;-75
2023/03/07 11:47:33;;;;;;;11.30;6.70;;;8.10;99.90;;;;;;5078866;28;20481;-75
2023/03/07 11:50:15;;;;;;;13.30;7.67;;;8.40;99.90;;;;;;5078291;28;20528;-77
2023/03/07 11:53:08;;;;;;;12.23;6.30;;;8.90;99.90;;;;;;5078685;28;20474;-76
2023/03/07 11:55:41;;;;;;;15.93;7.67;;;9.00;99.90;;;;;;5076805;28;21598;-75
2023/03/07 11:58:29;;;;;;;13.57;7.20;;;9.00;99.90;;;;;;5079404;28;20433;-75
2023/03/07 12:01:08;;;;;;;6.07;4.87;;;8.60;99.90;;;;;;5077197;28;20464;-75
2023/03/07 12:03:57;;;;;;;10.50;7.30;;;8.20;99.90;;;;;;5078062;28;20469;-75
2023/03/07 12:06:34;;;;;;;12.67;7.13;;;7.80;99.90;;;;;;5077936;28;20530;-74
2023/03/07 12:09:23;;;;;;;10.20;6.83;;;7.70;99.90;;;;;;5077335;28;20488;-75
2023/03/07 12:12:04;;;;;;;9.83;6.63;;;7.70;99.90;;;;;;5078186;28;21017;-74
2023/03/07 12:14:41;;;;;;;14.20;7.37;;;7.60;99.90;;;;;;5077911;28;20599;-76
2023/03/07 12:17:17;;;;;;;15.27;6.83;;;7.60;99.90;;;;;;5077426;28;20507;-75
2023/03/07 12:20:02;;;;;;;11.37;6.60;;;7.40;99.90;;;;;;5077333;28;20949;-75
2023/03/07 12:22:33;;;;;;;11.93;6.43;;;7.40;99.90;;;;;;5077565;28;20475;-75
2023/03/07 12:25:18;;;;;;;9.50;6.20;;;7.40;99.90;;;;;;5077507;28;20464;-75
2023/03/07 12:27:53;;;;;;;9.07;6.33;;;7.30;99.90;;;;;;5077788;28;21013;-74
2023/03/07 12:30:25;;;;;;;9.77;5.90;;;7.20;99.90;;;;;;5077128;28;20448;-74
2023/03/07 12:32:52;;;;;;;9.17;6.30;;;7.30;99.90;;;;;;5077306;28;20531;-75
2023/03/07 12:35:27;;;;;;;9.30;6.40;;;7.40;99.90;;;;;;5076787;28;20466;-75
2023/03/07 12:38:00;;;;;;;10.25;7.00;;;7.40;99.90;;;;;;5075969;28;20442;-75
2023/03/07 12:40:33;;;;;;;9.53;5.70;;;7.70;99.90;;;;;;5077824;28;20205;-74
2023/03/07 12:43:10;;;;;;;8.83;6.50;;;7.90;99.90;;;;;;5082558;28;20964;-75
2023/03/07 12:45:45;;;;;;;8.77;6.80;;;7.90;99.90;;;;;;5081826;28;20500;-73
2023/03/07 12:48:20;;;;;;;10.40;5.80;;;7.80;99.90;;;;;;5079985;28;20491;-75
2023/03/07 12:50:56;;;;;;;10.10;6.60;;;7.60;99.90;;;;;;5081784;28;20475;-77